Aplicació Alertes

Dades de l'estació automàtica Viladrau

?
?
Resum diari 22:30 TU
Dades diàries de l'estació meteorològica
Temperatura mitjana 1.4 °C
Temperatura màxima 7.2 °C 13:58 TU
Temperatura mínima -1.6 °C 21:52 TU
Humitat relativa mitjana 45%
Precipitació acumulada 0.0 mm
Ratxa màxima del vent (10 m) 27.4 km/h - 272º 1:39 TU
Pressió atmosfèrica mitjana 1026.6 hPa
Irradiació solar global 8.4 MJ/m2

El tram horari està expressat en Temps Universal (TU). Cal sumar una hora en horari d'hivern i dues en horari d'estiu per passar a l'hora oficial.

Viladrau

Metadades estació meteorol´gica
Municipi Viladrau
Comarca Osona
Altitud 953 m
Data alta 17.03.2005
Estat actual Operativa
Dades de període
Període
TU
TM
°C
TX
°C
TN
°C
HRM
%
PPT
mm
VVM (10 m)
km/h
DVM (10 m)
graus
VVX (10 m)
km/h
PM
hPa
RS
W/m2
00:00 - 00:30 0.1 0.4 -0.3 41 0.0 10.8 291 18.4 1023.4 0
00:30 - 01:00 -0.2 0.1 -0.5 42 0.0 9.4 292 15.8 1023.6 0
01:00 - 01:30 0.5 0.8 0.1 39 0.0 12.2 299 24.8 1023.3 0
01:30 - 02:00 1.1 1.3 0.8 36 0.0 13.3 292 27.4 1023.2 0
02:00 - 02:30 0.7 1.0 0.5 38 0.0 10.4 289 20.2 1023.7 0
02:30 - 03:00 0.7 1.1 0.2 39 0.0 9.4 267 18.4 1024.0 0
03:00 - 03:30 0.3 1.0 -0.3 41 0.0 10.4 260 19.8 1024.1 0
03:30 - 04:00 0.8 1.1 0.2 37 0.0 11.2 279 20.2 1023.8 0
04:00 - 04:30 0.6 1.0 0.2 36 0.0 11.5 295 18.0 1024.4 0
04:30 - 05:00 -0.1 0.4 -0.9 40 0.0 9.4 291 18.0 1025.1 0
05:00 - 05:30 -0.9 -0.5 -1.2 43 0.0 8.6 269 15.1 1025.7 0
05:30 - 06:00 -0.7 -0.2 -1.0 40 0.0 9.0 280 17.3 1025.9 0
06:00 - 06:30 -0.6 -0.3 -0.9 39 0.0 9.4 261 15.8 1026.2 0
06:30 - 07:00 -0.3 0.5 -0.9 39 0.0 5.8 257 21.6 1026.2 0
07:00 - 07:30 0.2 0.7 -0.4 39 0.0 8.6 264 26.3 1026.2 2
07:30 - 08:00 0.0 0.8 -1.1 40 0.0 5.0 260 12.6 1026.5 15
08:00 - 08:30 0.5 1.2 -0.1 39 0.0 6.5 284 19.1 1026.7 25
08:30 - 09:00 1.2 1.6 0.8 38 0.0 9.0 278 20.2 1026.9 59
09:00 - 09:30 1.7 2.6 1.2 39 0.0 13.0 278 23.0 1027.1 202
09:30 - 10:00 2.8 3.0 2.6 36 0.0 10.8 295 20.2 1026.8 358
10:00 - 10:30 3.4 4.0 2.9 35 0.0 13.0 283 22.3 1026.6 324
10:30 - 11:00 4.4 4.7 4.1 33 0.0 11.2 294 21.6 1026.1 454
11:00 - 11:30 5.2 5.7 4.6 31 0.0 10.4 300 20.5 1025.8 480
11:30 - 12:00 5.5 5.7 5.3 31 0.0 11.5 291 20.2 1025.6 490
12:00 - 12:30 5.8 6.4 5.5 30 0.0 10.8 285 19.8 1025.3 483
12:30 - 13:00 6.0 6.3 5.5 30 0.0 11.2 278 22.0 1025.1 401
13:00 - 13:30 6.7 7.1 6.0 30 0.0 7.9 295 14.8 1024.5 421
13:30 - 14:00 6.7 7.2 6.3 30 0.0 7.6 312 21.2 1024.3 371
14:00 - 14:30 6.7 7.0 6.3 32 0.0 5.0 301 12.2 1024.4 305
14:30 - 15:00 6.2 6.4 5.9 37 0.0 4.3 289 11.5 1024.8 230
15:00 - 15:30 4.9 6.4 2.2 44 0.0 2.2 235 4.7 1025.6 104
15:30 - 16:00 1.2 2.0 0.5 58 0.0 3.6 223 5.4 1027.4 15
16:00 - 16:30 0.6 0.8 0.0 60 0.0 2.9 208 5.4 1027.9 4
16:30 - 17:00 -0.4 0.2 -1.1 64 0.0 2.5 202 5.0 1028.5 0
17:00 - 17:30 -0.2 0.7 -0.8 61 0.0 2.9 189 5.8 1028.5 0
17:30 - 18:00 -0.5 0.3 -1.1 61 0.0 2.5 168 5.4 1028.9 0
18:00 - 18:30 -0.2 0.5 -1.2 61 0.0 3.6 140 7.2 1029.1 0
18:30 - 19:00 -0.6 -0.2 -1.1 64 0.0 3.6 154 9.0 1029.8 0
19:00 - 19:30 -0.6 0.1 -1.4 64 0.0 4.0 147 7.2 1030.0 0
19:30 - 20:00 -0.4 0.0 -0.7 63 0.0 4.3 157 6.1 1030.0 0
20:00 - 20:30 -0.5 -0.2 -0.9 63 0.0 4.7 170 6.8 1030.2 0
20:30 - 21:00 -0.5 0.3 -1.1 63 0.0 2.9 214 6.8 1030.2 0
21:00 - 21:30 -0.6 0.2 -1.2 63 0.0 4.7 230 9.0 1030.2 0
21:30 - 22:00 -0.6 0.3 -1.6 63 0.0 1.8 174 4.7 1030.4 0
22:00 - 22:30 -0.8 0.0 -1.3 64 0.0 2.2 192 4.7 1030.9 0
22:30 - 23:00 -0.6 -0.3 -1.1 64 0.0 1.8 199 5.8 1031.0 0

Les dades en taronja només han passat un control de qualitat automàtic. Resta pendent la seva validació definitiva.